Terminal Aerodrome Forecast
Issued by NWS Wichita, KS

Home | Current Version | Previous Version | Graphics & Text | Print | Product List | Glossary On
Versions: 1 2 3 4 5 6 7 8 9 10 11 12 13 14 15 16 17 18 19 20 21 22
000
FTUS43 KICT 310755 AAC
TAFICT
TAF AMD
KICT 310755Z 3108/0106 15010KT P6SM SCT017 BKN070
      TEMPO 3109/3113 -TSRA BKN040CB
     FM311800 11006KT P6SM VCTS BKN040CB
     FM010200 02010KT P6SM SCT040=

USA.gov is the U.S. government's official web portal to all federal, state and local government web resources and services.